createdAt,value
2018-06-03T00:02:08.302Z,13.62
2018-06-03T00:04:36.412Z,13.30
2018-06-03T00:07:04.525Z,12.43
2018-06-03T00:09:32.849Z,10.47
2018-06-03T00:12:01.005Z,10.03
2018-06-03T00:14:29.106Z,11.00
2018-06-03T00:16:57.317Z,9.13
2018-06-03T00:19:25.597Z,11.50
2018-06-03T00:21:54.550Z,10.18
2018-06-03T00:24:23.289Z,11.50
2018-06-03T00:26:51.389Z,11.33
2018-06-03T00:29:19.460Z,10.87
2018-06-03T00:31:47.834Z,15.73
2018-06-03T00:34:15.945Z,11.93
2018-06-03T00:36:46.393Z,12.03
2018-06-03T00:39:15.576Z,11.13
2018-06-03T00:41:44.573Z,12.20
2018-06-03T00:44:12.688Z,10.37
2018-06-03T00:46:40.912Z,13.17
2018-06-03T00:49:09.449Z,12.20
2018-06-03T00:51:37.541Z,12.35
2018-06-03T00:54:05.885Z,13.05
2018-06-03T00:56:45.369Z,11.80
2018-06-03T00:59:14.128Z,13.90
2018-06-03T01:01:42.216Z,14.40
2018-06-03T01:04:11.020Z,13.88
2018-06-03T01:06:39.336Z,15.45
2018-06-03T01:09:08.073Z,13.83
2018-06-03T01:11:36.175Z,13.60
2018-06-03T01:14:04.288Z,11.37
2018-06-03T01:16:32.476Z,12.27
2018-06-03T01:19:00.801Z,10.97
2018-06-03T01:21:28.900Z,12.05
2018-06-03T01:23:57.457Z,13.78
2018-06-03T01:26:25.565Z,12.00
2018-06-03T01:28:53.677Z,12.93
2018-06-03T01:31:21.824Z,14.80
2018-06-03T01:33:50.149Z,12.93
2018-06-03T01:36:18.256Z,14.60
2018-06-03T01:38:46.964Z,14.23
2018-06-03T01:41:15.045Z,13.90
2018-06-03T01:43:43.190Z,12.50
2018-06-03T01:46:11.433Z,12.07
2018-06-03T01:48:39.753Z,12.10
2018-06-03T01:51:07.860Z,11.00
2018-06-03T01:53:35.964Z,11.03
2018-06-03T01:56:04.049Z,11.10
2018-06-03T01:58:32.458Z,12.43
2018-06-03T02:01:00.729Z,14.63
2018-06-03T02:03:29.835Z,15.20
2018-06-03T02:05:58.647Z,11.50
2018-06-03T02:08:27.148Z,13.07
2018-06-03T02:10:55.249Z,12.70
2018-06-03T02:13:23.345Z,12.17
2018-06-03T02:15:51.910Z,11.77
2018-06-03T02:18:20.217Z,18.00
2018-06-03T02:20:49.259Z,15.60
2018-06-03T02:23:17.437Z,16.13
2018-06-03T02:25:45.564Z,14.83
2018-06-03T02:28:13.921Z,12.57
2018-06-03T02:30:42.205Z,11.17
2018-06-03T02:33:10.333Z,14.13
2018-06-03T02:35:38.603Z,20.27
2018-06-03T02:38:06.915Z,16.10
2018-06-03T02:40:35.457Z,14.20
2018-06-03T02:43:03.698Z,19.37
2018-06-03T02:45:31.799Z,15.27
2018-06-03T02:48:00.137Z,12.70
2018-06-03T02:50:28.434Z,18.30
2018-06-03T02:52:56.528Z,12.50
2018-06-03T02:55:24.626Z,13.50
2018-06-03T02:57:53.012Z,14.93
2018-06-03T03:00:21.155Z,13.63
2018-06-03T03:02:49.236Z,13.73
2018-06-03T03:05:18.465Z,12.97
2018-06-03T03:07:46.533Z,12.30
2018-06-03T03:10:15.153Z,11.40
2018-06-03T03:12:43.280Z,18.02
2018-06-03T03:15:12.093Z,15.53
2018-06-03T03:17:41.168Z,17.60
2018-06-03T03:20:09.261Z,15.73
2018-06-03T03:22:38.486Z,16.37
2018-06-03T03:25:07.340Z,16.60
2018-06-03T03:27:35.461Z,14.70
2018-06-03T03:30:03.942Z,13.47
2018-06-03T03:32:32.065Z,14.23
2018-06-03T03:35:00.536Z,14.95
2018-06-03T03:37:29.637Z,15.50
2018-06-03T03:39:57.721Z,13.83
2018-06-03T03:42:25.971Z,13.80
2018-06-03T03:44:55.295Z,13.77
2018-06-03T03:47:23.449Z,14.30
2018-06-03T03:49:51.560Z,15.37
2018-06-03T03:52:19.877Z,17.70
2018-06-03T03:54:48.046Z,15.13
2018-06-03T03:57:16.169Z,13.50
2018-06-03T03:59:44.260Z,11.63
2018-06-03T04:02:12.401Z,14.30
2018-06-03T04:04:40.588Z,12.05
2018-06-03T04:07:08.841Z,13.83
2018-06-03T04:09:36.933Z,10.82
2018-06-03T04:12:05.052Z,12.13
2018-06-03T04:14:33.126Z,14.63
2018-06-03T04:17:02.185Z,11.00
2018-06-03T04:19:30.809Z,9.50
2018-06-03T04:21:59.589Z,9.97
2018-06-03T04:24:27.668Z,10.03
2018-06-03T04:26:55.765Z,10.10
2018-06-03T04:29:24.356Z,8.50
2018-06-03T04:31:52.444Z,9.13
2018-06-03T04:34:20.877Z,15.20
2018-06-03T04:36:48.969Z,8.10
2018-06-03T04:39:18.257Z,8.73
2018-06-03T04:41:47.345Z,11.10
2018-06-03T04:44:16.066Z,12.20
2018-06-03T04:46:44.622Z,11.27
2018-06-03T04:49:12.857Z,14.85
2018-06-03T04:51:41.025Z,17.33
2018-06-03T04:54:09.176Z,10.37
2018-06-03T04:56:38.792Z,10.80
2018-06-03T04:59:07.248Z,9.27
2018-06-03T05:01:35.325Z,9.57
2018-06-03T05:04:03.533Z,9.10
2018-06-03T05:06:31.657Z,6.80
2018-06-03T05:08:59.712Z,6.70
2018-06-03T05:11:27.808Z,7.43
2018-06-03T05:13:55.903Z,7.57
2018-06-03T05:16:23.985Z,7.50
2018-06-03T05:18:52.117Z,8.03
2018-06-03T05:21:20.242Z,9.10
2018-06-03T05:23:48.688Z,6.17
2018-06-03T05:26:16.844Z,7.28
2018-06-03T05:28:44.937Z,7.05
2018-06-03T05:31:13.076Z,6.10
2018-06-03T05:33:41.213Z,6.37
2018-06-03T05:36:09.297Z,6.60
2018-06-03T05:38:37.375Z,6.67
2018-06-03T05:41:05.447Z,6.37
2018-06-03T05:43:33.544Z,6.80
2018-06-03T05:46:01.648Z,6.70
2018-06-03T05:48:29.896Z,6.57
2018-06-03T05:50:57.968Z,6.63
2018-06-03T05:53:26.089Z,6.80
2018-06-03T05:55:54.302Z,7.17
2018-06-03T05:58:22.604Z,7.93
2018-06-03T06:00:50.745Z,6.12
2018-06-03T06:03:18.925Z,6.90
2018-06-03T06:05:47.028Z,6.23
2018-06-03T06:08:15.108Z,5.92
2018-06-03T06:10:43.411Z,7.70
2018-06-03T06:13:11.602Z,6.63
2018-06-03T06:15:39.739Z,6.97
2018-06-03T06:18:09.694Z,9.37
2018-06-03T06:20:37.784Z,5.87
2018-06-03T06:23:06.438Z,5.67
2018-06-03T06:25:34.524Z,6.23
2018-06-03T06:28:02.601Z,5.33
2018-06-03T06:30:30.689Z,5.73
2018-06-03T06:32:59.063Z,5.77
2018-06-03T06:35:27.177Z,5.13
2018-06-03T06:37:55.276Z,5.80
2018-06-03T06:40:23.365Z,5.90
2018-06-03T06:42:51.477Z,5.92
2018-06-03T06:45:19.549Z,7.47
2018-06-03T06:47:47.705Z,6.00
2018-06-03T06:50:15.791Z,6.62
2018-06-03T06:52:44.037Z,6.10
2018-06-03T06:55:12.315Z,6.50
2018-06-03T06:57:40.407Z,5.28
2018-06-03T07:00:08.668Z,6.23
2018-06-03T07:02:37.644Z,6.97
2018-06-03T07:05:05.772Z,8.20
2018-06-03T07:07:33.970Z,6.73
2018-06-03T07:10:02.067Z,6.00
2018-06-03T07:12:30.165Z,6.53
2018-06-03T07:14:58.268Z,7.40
2018-06-03T07:17:26.365Z,6.70
2018-06-03T07:19:54.444Z,7.80
2018-06-03T07:22:22.523Z,6.93
2018-06-03T07:24:50.592Z,5.63
2018-06-03T07:27:18.657Z,6.92
2018-06-03T07:29:46.804Z,5.90
2018-06-03T07:32:14.894Z,7.20
2018-06-03T07:34:42.969Z,8.10
2018-06-03T07:37:11.057Z,7.10
2018-06-03T07:39:39.150Z,7.10
2018-06-03T07:42:07.332Z,7.67
2018-06-03T07:44:35.445Z,8.30
2018-06-03T07:47:03.528Z,7.90
2018-06-03T07:49:31.590Z,7.73
2018-06-03T07:51:59.797Z,6.77
2018-06-03T07:54:27.887Z,8.07
2018-06-03T07:56:56.014Z,7.60
2018-06-03T07:59:24.900Z,7.30
2018-06-03T08:01:53.162Z,8.10
2018-06-03T08:04:21.253Z,7.10
2018-06-03T08:06:49.335Z,7.80
2018-06-03T08:09:17.428Z,6.33
2018-06-03T08:11:45.572Z,6.40
2018-06-03T08:14:13.697Z,6.90
2018-06-03T08:16:42.056Z,6.67
2018-06-03T08:19:10.489Z,6.40
2018-06-03T08:21:38.608Z,5.67
2018-06-03T08:24:06.705Z,6.37
2018-06-03T08:26:33.848Z,6.13
2018-06-03T08:29:01.947Z,6.10
2018-06-03T08:31:30.096Z,4.37
2018-06-03T08:33:58.192Z,4.90
2018-06-03T08:36:26.268Z,5.00
2018-06-03T08:38:54.380Z,4.80
2018-06-03T08:41:22.622Z,4.90
2018-06-03T08:43:50.681Z,6.37
2018-06-03T08:46:18.908Z,5.33
2018-06-03T08:48:47.011Z,7.93
2018-06-03T08:51:15.099Z,4.87
2018-06-03T08:53:43.384Z,4.77
2018-06-03T08:56:11.828Z,3.55
2018-06-03T08:58:39.926Z,4.40
2018-06-03T09:01:08.076Z,4.40
2018-06-03T09:03:36.158Z,3.40
2018-06-03T09:06:04.256Z,3.30
2018-06-03T09:08:32.765Z,3.30
2018-06-03T09:11:00.912Z,4.03
2018-06-03T09:13:29.134Z,5.35
2018-06-03T09:15:57.229Z,12.13
2018-06-03T09:18:25.314Z,4.87
2018-06-03T09:20:53.502Z,4.07
2018-06-03T09:23:21.589Z,3.70
2018-06-03T09:25:49.786Z,4.93
2018-06-03T09:28:17.906Z,4.97
2018-06-03T09:30:47.081Z,4.93
2018-06-03T09:33:15.230Z,3.67
2018-06-03T09:35:43.328Z,3.50
2018-06-03T09:38:11.460Z,5.23
2018-06-03T09:40:39.597Z,3.60
2018-06-03T09:43:07.724Z,4.27
2018-06-03T09:45:35.960Z,3.77
2018-06-03T09:48:04.044Z,4.10
2018-06-03T09:50:32.149Z,3.97
2018-06-03T09:53:00.562Z,3.37
2018-06-03T09:55:28.940Z,4.47
2018-06-03T09:57:57.084Z,3.58
2018-06-03T10:00:28.255Z,6.93
2018-06-03T10:02:57.533Z,3.63
2018-06-03T10:05:25.901Z,4.73
2018-06-03T10:07:54.096Z,3.58
2018-06-03T10:10:22.217Z,3.53
2018-06-03T10:12:50.405Z,3.17
2018-06-03T10:15:18.498Z,4.40
2018-06-03T10:17:46.631Z,6.90
2018-06-03T10:20:15.059Z,4.47
2018-06-03T10:22:43.153Z,3.07
2018-06-03T10:25:11.513Z,3.73
2018-06-03T10:27:39.818Z,3.57
2018-06-03T10:30:07.936Z,5.20
2018-06-03T10:32:36.032Z,3.37
2018-06-03T10:35:04.124Z,3.07
2018-06-03T10:37:32.257Z,4.17
2018-06-03T10:40:00.665Z,4.20
2018-06-03T10:42:28.705Z,3.40
2018-06-03T10:44:56.885Z,3.50
2018-06-03T10:47:25.038Z,5.17
2018-06-03T10:49:53.165Z,3.80
2018-06-03T10:52:21.378Z,3.97
2018-06-03T10:54:49.631Z,3.10
2018-06-03T10:57:17.797Z,3.33
2018-06-03T10:59:47.386Z,3.52
2018-06-03T11:02:16.652Z,4.97
2018-06-03T11:04:45.158Z,3.67
2018-06-03T11:07:13.456Z,3.03
2018-06-03T11:09:41.590Z,2.35
2018-06-03T11:12:09.792Z,3.15
2018-06-03T11:14:38.285Z,3.10
2018-06-03T11:17:06.748Z,3.80
2018-06-03T11:19:35.017Z,3.10
2018-06-03T11:22:03.733Z,3.07
2018-06-03T11:24:31.872Z,3.20
2018-06-03T11:26:59.973Z,3.37
2018-06-03T11:29:28.069Z,3.10
2018-06-03T11:31:56.165Z,3.58
2018-06-03T11:34:24.297Z,2.95
2018-06-03T11:36:52.685Z,2.70
2018-06-03T11:39:20.909Z,5.73
2018-06-03T11:41:49.133Z,2.43
2018-06-03T11:44:19.148Z,8.15
2018-06-03T11:46:48.287Z,3.12
2018-06-03T11:49:16.542Z,2.60
2018-06-03T11:51:44.745Z,3.20
2018-06-03T11:54:13.044Z,3.23
2018-06-03T11:56:52.624Z,2.30
2018-06-03T11:59:32.021Z,2.63
2018-06-03T12:02:00.153Z,4.20
2018-06-03T12:04:28.240Z,2.50
2018-06-03T12:06:56.317Z,3.40
2018-06-03T12:09:24.496Z,2.63
2018-06-03T12:11:53.659Z,3.30
2018-06-03T12:14:22.863Z,3.97
2018-06-03T12:16:51.069Z,3.60
2018-06-03T12:19:19.556Z,4.55
2018-06-03T12:21:48.178Z,2.37
2018-06-03T12:24:16.259Z,2.20
2018-06-03T12:26:44.368Z,2.33
2018-06-03T12:29:12.486Z,1.80
2018-06-03T12:31:40.608Z,2.53
2018-06-03T12:34:08.745Z,4.43
2018-06-03T12:36:36.870Z,2.97
2018-06-03T12:39:08.868Z,2.60
2018-06-03T12:41:37.730Z,2.63
2018-06-03T12:44:05.831Z,3.10
2018-06-03T12:46:34.144Z,3.40
2018-06-03T12:49:02.690Z,4.10
2018-06-03T12:51:31.174Z,3.20
2018-06-03T12:53:59.773Z,2.50
2018-06-03T12:56:27.899Z,3.23
2018-06-03T12:58:56.035Z,2.60
2018-06-03T13:01:24.157Z,2.47
2018-06-03T13:03:52.420Z,2.30
2018-06-03T13:06:21.567Z,3.05
2018-06-03T13:08:49.776Z,3.07
2018-06-03T13:11:18.192Z,2.40
2018-06-03T13:13:46.662Z,2.20
2018-06-03T13:16:14.936Z,2.37
2018-06-03T13:18:43.043Z,4.50
2018-06-03T13:21:11.116Z,2.75
2018-06-03T13:23:39.219Z,3.00
2018-06-03T13:26:07.555Z,5.05
2018-06-03T13:28:35.729Z,2.20
2018-06-03T13:31:03.945Z,2.63
2018-06-03T13:33:32.118Z,3.20
2018-06-03T13:36:00.213Z,2.33
2018-06-03T13:38:29.276Z,3.40
2018-06-03T13:40:57.356Z,2.17
2018-06-03T13:43:25.597Z,2.17
2018-06-03T13:45:53.787Z,2.57
2018-06-03T13:48:21.954Z,2.63
2018-06-03T13:50:50.328Z,2.33
2018-06-03T13:53:18.821Z,2.23
2018-06-03T13:55:46.936Z,2.53
2018-06-03T13:58:15.254Z,4.13
2018-06-03T14:00:43.330Z,2.63
2018-06-03T14:03:11.451Z,2.73
2018-06-03T14:05:39.562Z,2.87
2018-06-03T14:08:07.645Z,2.33
2018-06-03T14:10:36.096Z,2.27
2018-06-03T14:13:04.176Z,2.80
2018-06-03T14:15:32.312Z,2.53
2018-06-03T14:18:00.389Z,1.90
2018-06-03T14:20:28.471Z,2.90
2018-06-03T14:22:56.789Z,2.40
2018-06-03T14:25:25.164Z,3.27
2018-06-03T14:27:53.236Z,2.80
2018-06-03T14:30:21.576Z,2.43
2018-06-03T14:32:49.653Z,2.23
2018-06-03T14:35:17.864Z,1.93
2018-06-03T14:37:45.945Z,3.30
2018-06-03T14:40:14.043Z,4.30
2018-06-03T14:42:42.104Z,1.93
2018-06-03T14:45:10.204Z,3.57
2018-06-03T14:47:38.276Z,3.20
2018-06-03T14:50:06.636Z,2.40
2018-06-03T14:52:34.724Z,3.23
2018-06-03T14:55:02.805Z,2.43
2018-06-03T14:57:30.901Z,3.83
2018-06-03T14:59:58.953Z,2.40
2018-06-03T15:02:27.018Z,2.77
2018-06-03T15:04:55.173Z,3.70
2018-06-03T15:07:23.252Z,2.10
2018-06-03T15:09:51.337Z,3.50
2018-06-03T15:12:19.499Z,2.20
2018-06-03T15:14:47.584Z,2.37
2018-06-03T15:17:15.669Z,4.40
2018-06-03T15:19:43.768Z,2.33
2018-06-03T15:22:11.869Z,2.20
2018-06-03T15:24:41.053Z,5.07
2018-06-03T15:27:09.232Z,2.00
2018-06-03T15:29:37.338Z,2.10
2018-06-03T15:32:05.507Z,4.67
2018-06-03T15:34:33.652Z,2.07
2018-06-03T15:37:01.752Z,2.10
2018-06-03T15:39:29.905Z,2.10
2018-06-03T15:41:58.548Z,3.30
2018-06-03T15:44:26.654Z,3.03
2018-06-03T15:46:54.768Z,2.43
2018-06-03T15:49:22.981Z,2.73
2018-06-03T15:51:51.061Z,2.27
2018-06-03T15:54:19.177Z,2.57
2018-06-03T15:56:47.288Z,4.20
2018-06-03T15:59:15.425Z,2.23
2018-06-03T16:01:43.624Z,5.37
2018-06-03T16:04:11.713Z,2.00
2018-06-03T16:06:39.817Z,1.92
2018-06-03T16:09:07.906Z,2.37
2018-06-03T16:11:36.053Z,2.50
2018-06-03T16:14:04.276Z,2.85
2018-06-03T16:16:33.177Z,2.50
2018-06-03T16:19:01.280Z,1.90
2018-06-03T16:21:29.505Z,2.10
2018-06-03T16:23:57.564Z,3.00
2018-06-03T16:26:25.657Z,2.47
2018-06-03T16:28:53.750Z,2.43
2018-06-03T16:31:21.939Z,2.83
2018-06-03T16:33:50.925Z,3.30
2018-06-03T16:36:19.007Z,2.70
2018-06-03T16:38:47.091Z,2.45
2018-06-03T16:41:15.197Z,2.92
2018-06-03T16:43:43.301Z,3.37
2018-06-03T16:46:11.365Z,2.30
2018-06-03T16:48:39.469Z,2.30
2018-06-03T16:51:07.586Z,2.40
2018-06-03T16:53:35.697Z,4.97
2018-06-03T16:56:03.805Z,2.63
2018-06-03T16:58:31.985Z,2.43
2018-06-03T17:01:00.648Z,2.58
2018-06-03T17:03:28.763Z,2.30
2018-06-03T17:05:57.153Z,2.63
2018-06-03T17:08:25.524Z,4.27
2018-06-03T17:10:54.246Z,3.37
2018-06-03T17:13:22.802Z,2.40
2018-06-03T17:15:51.667Z,2.50
2018-06-03T17:18:19.745Z,2.92
2018-06-03T17:20:48.172Z,2.60
2018-06-03T17:23:16.953Z,2.70
2018-06-03T17:25:45.395Z,3.02
2018-06-03T17:28:13.841Z,3.53
2018-06-03T17:30:42.381Z,2.70
2018-06-03T17:33:10.553Z,2.33
2018-06-03T17:35:39.230Z,2.63
2018-06-03T17:38:07.300Z,2.20
2018-06-03T17:40:35.706Z,2.40
2018-06-03T17:43:04.629Z,2.43
2018-06-03T17:45:32.942Z,2.63
2018-06-03T17:48:02.518Z,2.67
2018-06-03T17:50:30.683Z,4.17
2018-06-03T17:52:58.797Z,3.00
2018-06-03T17:55:27.474Z,2.10
2018-06-03T17:57:55.753Z,2.43
2018-06-03T18:00:23.880Z,2.40
2018-06-03T18:02:52.091Z,2.57
2018-06-03T18:05:20.227Z,2.63
2018-06-03T18:07:48.303Z,3.62
2018-06-03T18:10:16.397Z,2.83
2018-06-03T18:12:44.485Z,2.47
2018-06-03T18:15:13.352Z,2.53
2018-06-03T18:17:41.428Z,3.27
2018-06-03T18:20:09.551Z,3.90
2018-06-03T18:22:37.968Z,2.63
2018-06-03T18:25:06.092Z,3.08
2018-06-03T18:27:47.789Z,2.63
2018-06-03T18:30:16.095Z,4.07
2018-06-03T18:32:44.931Z,2.77
2018-06-03T18:35:13.054Z,2.90
2018-06-03T18:37:41.136Z,8.83
2018-06-03T18:40:09.593Z,2.70
2018-06-03T18:42:37.797Z,2.60
2018-06-03T18:45:05.944Z,2.67
2018-06-03T18:47:34.030Z,2.63
2018-06-03T18:50:02.188Z,2.47
2018-06-03T18:52:30.256Z,3.05
2018-06-03T18:54:58.364Z,3.37
2018-06-03T18:57:26.431Z,3.27
2018-06-03T18:59:54.567Z,2.73
2018-06-03T19:02:22.630Z,3.10
2018-06-03T19:04:50.727Z,3.87
2018-06-03T19:07:18.828Z,2.60
2018-06-03T19:09:47.336Z,2.93
2018-06-03T19:12:15.828Z,2.70
2018-06-03T19:14:44.038Z,2.50
2018-06-03T19:17:12.136Z,2.10
2018-06-03T19:19:40.388Z,3.73
2018-06-03T19:22:08.703Z,4.03
2018-06-03T19:24:36.865Z,3.00
2018-06-03T19:27:04.986Z,4.30
2018-06-03T19:29:33.069Z,4.50
2018-06-03T19:32:01.181Z,2.90
2018-06-03T19:34:29.300Z,3.07
2018-06-03T19:36:57.468Z,2.47
2018-06-03T19:39:25.800Z,3.50
2018-06-03T19:41:54.253Z,4.93
2018-06-03T19:44:22.361Z,4.43
2018-06-03T19:46:50.655Z,2.67
2018-06-03T19:49:19.067Z,4.53
2018-06-03T19:51:47.274Z,3.33
2018-06-03T19:54:15.560Z,3.30
2018-06-03T19:56:43.675Z,3.05
2018-06-03T19:59:11.752Z,3.57
2018-06-03T20:01:39.845Z,4.43
2018-06-03T20:04:08.237Z,3.30
2018-06-03T20:06:36.567Z,3.57
2018-06-03T20:18:52.383Z,2.83
2018-06-03T20:21:20.485Z,3.53
2018-06-03T20:23:48.585Z,3.47
2018-06-03T20:26:16.705Z,3.87
2018-06-03T20:28:44.888Z,4.53
2018-06-03T20:31:13.025Z,3.57
2018-06-03T20:33:41.373Z,3.80
2018-06-03T20:36:09.523Z,3.50
2018-06-03T20:38:37.548Z,3.83
2018-06-03T20:41:06.838Z,3.90
2018-06-03T20:43:34.928Z,3.80
2018-06-03T20:46:03.051Z,3.63
2018-06-03T20:48:31.320Z,3.43
2018-06-03T20:50:59.402Z,3.60
2018-06-03T20:53:27.500Z,5.33
2018-06-03T20:55:55.628Z,3.63
2018-06-03T20:58:24.016Z,3.80
2018-06-03T21:00:52.209Z,4.17
2018-06-03T21:03:20.313Z,4.20
2018-06-03T21:05:48.408Z,4.65
2018-06-03T21:08:16.509Z,3.55
2018-06-03T21:10:44.589Z,3.72
2018-06-03T21:13:13.733Z,3.27
2018-06-03T21:15:41.894Z,5.23
2018-06-03T21:18:10.101Z,3.60
2018-06-03T21:20:38.809Z,7.07
2018-06-03T21:23:07.092Z,5.40
2018-06-03T21:25:35.870Z,4.60
2018-06-03T21:28:03.944Z,4.43
2018-06-03T21:30:32.228Z,5.37
2018-06-03T21:33:00.865Z,4.60
2018-06-03T21:35:28.928Z,4.90
2018-06-03T21:37:57.253Z,5.20
2018-06-03T21:40:25.381Z,8.00
2018-06-03T21:42:54.681Z,6.10
2018-06-03T21:45:22.776Z,5.95
2018-06-03T21:47:50.962Z,5.45
2018-06-03T21:50:19.107Z,4.90
2018-06-03T21:52:47.229Z,4.50
2018-06-03T21:55:15.570Z,3.95
2018-06-03T21:57:44.057Z,4.47
2018-06-03T22:02:37.825Z,4.33
2018-06-03T22:05:05.932Z,5.07
2018-06-03T22:07:36.488Z,5.60
2018-06-03T22:10:04.897Z,5.85
2018-06-03T22:12:32.976Z,5.60
2018-06-03T22:15:01.569Z,9.63
2018-06-03T22:17:30.421Z,5.93
2018-06-03T22:19:59.605Z,7.27
2018-06-03T22:22:27.745Z,4.93
2018-06-03T22:24:55.828Z,4.30
2018-06-03T22:27:24.413Z,5.45
2018-06-03T22:29:53.630Z,5.50
2018-06-03T22:32:21.795Z,8.43
2018-06-03T22:34:49.931Z,7.43
2018-06-03T22:37:20.644Z,5.00
2018-06-03T22:39:49.597Z,7.70
2018-06-03T22:42:17.920Z,4.90
2018-06-03T22:44:46.117Z,4.72
2018-06-03T22:47:14.335Z,5.47
2018-06-03T22:49:42.412Z,5.47
2018-06-03T22:52:11.410Z,7.92
2018-06-03T22:54:39.581Z,6.10
2018-06-03T22:58:11.764Z,5.20
2018-06-03T23:00:39.890Z,6.03
2018-06-03T23:03:13.328Z,5.23
2018-06-03T23:05:41.905Z,6.42
2018-06-03T23:08:10.772Z,5.40
2018-06-03T23:10:38.925Z,6.15
2018-06-03T23:13:07.182Z,5.85
2018-06-03T23:15:35.510Z,6.00
2018-06-03T23:18:04.257Z,5.20
2018-06-03T23:20:32.329Z,6.15
2018-06-03T23:23:00.413Z,5.40
2018-06-03T23:25:29.060Z,6.55
2018-06-03T23:27:57.461Z,6.00
2018-06-03T23:30:25.766Z,5.97
2018-06-03T23:32:53.848Z,6.70
2018-06-03T23:35:22.557Z,6.43
2018-06-03T23:37:52.204Z,6.47
2018-06-03T23:40:20.405Z,6.15
2018-06-03T23:42:48.705Z,6.57
2018-06-03T23:45:17.112Z,8.90
2018-06-03T23:47:45.451Z,5.70
2018-06-03T23:50:14.411Z,7.22
2018-06-03T23:52:43.045Z,6.50
2018-06-03T23:55:12.896Z,6.20
2018-06-03T23:57:40.985Z,6.57
